Aérodrome :
LOGIN :

S'inscrire | Disclaimer

   EN    FR    IT 

 










Légende :    VFR   VFR Marginal   IFR   IFR Intensif   IFR Très Intensif
Visi : 
Plafond : 
>= 8 km
>= 3000ft
5 à 8 km
1000 à 3000 ft
1500m à 5 km
500 à 1000 ft
800 à 1500m
200 à 500 ft
< 800m
< 200 ft
Symboles :   Orages  Brouillard  Fortes neiges  Fortes précipitations  Vent > 20 kt
SIGMETs :   Divers  Orages  Givrage  Turbulence  Onde Orograph.  Cendres Volcan.






- Altitude de l'aérodrome : 1202 ft
- Code IATA : IGS


ETSI - Ingolstadt

DERNIER METAR :
  • 080620Z 06006KT 9999 M06/M10 Q1037 BLU+BLU+

METARs EXPIRÉS :
  • 080520Z 05007KT 9999 M06/M10 Q1037 BLU+BLU+
  • 080420Z 07005KT 9999 M07/M10 Q1037 BLU+
  • 080320Z AUTO 06006KT 9999 // ////// M06/M09 Q1037 ///

TAF TAF ETSI
Valide du 08 à 06h jusqu'au 08 à 15h UTC


080511Z 0806/0815 07006KT 9999 NSW SKC
TEMPO 0812/0815 08010G20KT 9999 NSW SKC



MET'MAP, la Météo Aéronautique d'un coup d'oeil ! - Copyright ORBIFLY Décembre 2007 - Disclaimer

ORBIFLY MET'MAP TEAM :

Programmation & Développement : Alexandra Zaïnal
Sur une idée originale de : Baudouin d'Aumeries
Soutien technique & logistique : Manuel Goepfert
Assistance : Marc-Olivier Méhu




SOURCES & CREDITS :

   NOAA